sensor_id;sensor_type;location;lat;lon;timestamp;temperature;humidity
5743;DHT22;2896;53.500;10.020;2023-05-15T00:02:13;11.30;99.90
5743;DHT22;2896;53.500;10.020;2023-05-15T00:04:40;11.20;99.90
5743;DHT22;2896;53.500;10.020;2023-05-15T00:07:07;11.20;99.90
5743;DHT22;2896;53.500;10.020;2023-05-15T00:09:35;11.20;99.90
5743;DHT22;2896;53.500;10.020;2023-05-15T00:12:02;11.20;99.90
5743;DHT22;2896;53.500;10.020;2023-05-15T00:14:29;11.20;99.90
5743;DHT22;2896;53.500;10.020;2023-05-15T00:16:55;11.10;99.90
5743;DHT22;2896;53.500;10.020;2023-05-15T00:19:22;11.10;99.90
5743;DHT22;2896;53.500;10.020;2023-05-15T00:21:49;11.10;1.00
5743;DHT22;2896;53.500;10.020;2023-05-15T00:24:15;11.00;1.00
5743;DHT22;2896;53.500;10.020;2023-05-15T00:26:43;11.00;1.00
5743;DHT22;2896;53.500;10.020;2023-05-15T00:29:10;11.10;1.00
5743;DHT22;2896;53.500;10.020;2023-05-15T00:31:37;11.00;1.00
5743;DHT22;2896;53.500;10.020;2023-05-15T00:34:03;11.00;1.00
5743;DHT22;2896;53.500;10.020;2023-05-15T00:36:30;11.00;1.00
5743;DHT22;2896;53.500;10.020;2023-05-15T00:38:57;10.90;1.00
5743;DHT22;2896;53.500;10.020;2023-05-15T00:41:24;10.90;1.00
5743;DHT22;2896;53.500;10.020;2023-05-15T00:43:54;10.90;1.00
5743;DHT22;2896;53.500;10.020;2023-05-15T00:46:21;10.90;1.00
5743;DHT22;2896;53.500;10.020;2023-05-15T00:48:49;10.90;1.00
5743;DHT22;2896;53.500;10.020;2023-05-15T00:51:16;10.90;1.00
5743;DHT22;2896;53.500;10.020;2023-05-15T00:53:43;10.90;1.00
5743;DHT22;2896;53.500;10.020;2023-05-15T00:56:10;10.90;1.00
5743;DHT22;2896;53.500;10.020;2023-05-15T00:58:37;10.80;1.00
5743;DHT22;2896;53.500;10.020;2023-05-15T01:01:05;10.80;1.00
5743;DHT22;2896;53.500;10.020;2023-05-15T01:03:32;10.80;1.00
5743;DHT22;2896;53.500;10.020;2023-05-15T01:05:59;10.90;1.00
5743;DHT22;2896;53.500;10.020;2023-05-15T01:08:29;10.80;1.00
5743;DHT22;2896;53.500;10.020;2023-05-15T01:11:02;10.90;1.00
5743;DHT22;2896;53.500;10.020;2023-05-15T01:13:29;10.80;1.00
5743;DHT22;2896;53.500;10.020;2023-05-15T01:15:57;10.80;1.00
5743;DHT22;2896;53.500;10.020;2023-05-15T01:18:25;10.80;1.00
5743;DHT22;2896;53.500;10.020;2023-05-15T01:21:10;10.80;1.00
5743;DHT22;2896;53.500;10.020;2023-05-15T01:23:51;10.80;1.00
5743;DHT22;2896;53.500;10.020;2023-05-15T01:26:41;10.80;1.00
5743;DHT22;2896;53.500;10.020;2023-05-15T01:29:15;10.80;1.00
5743;DHT22;2896;53.500;10.020;2023-05-15T01:31:49;10.80;1.00
5743;DHT22;2896;53.500;10.020;2023-05-15T01:34:16;10.80;1.00
5743;DHT22;2896;53.500;10.020;2023-05-15T01:36:46;10.80;1.00
5743;DHT22;2896;53.500;10.020;2023-05-15T01:39:16;10.80;1.00
5743;DHT22;2896;53.500;10.020;2023-05-15T01:41:48;10.80;1.00
5743;DHT22;2896;53.500;10.020;2023-05-15T01:44:20;10.80;1.00
5743;DHT22;2896;53.500;10.020;2023-05-15T01:46:51;10.80;1.00
5743;DHT22;2896;53.500;10.020;2023-05-15T01:49:18;10.80;1.00
5743;DHT22;2896;53.500;10.020;2023-05-15T01:51:50;12.10;1.00
5743;DHT22;2896;53.500;10.020;2023-05-15T01:54:18;10.80;1.00
5743;DHT22;2896;53.500;10.020;2023-05-15T01:56:46;10.80;1.00
5743;DHT22;2896;53.500;10.020;2023-05-15T01:59:14;10.80;1.00
5743;DHT22;2896;53.500;10.020;2023-05-15T02:01:44;10.80;1.00
5743;DHT22;2896;53.500;10.020;2023-05-15T02:04:11;10.80;1.00
5743;DHT22;2896;53.500;10.020;2023-05-15T02:06:40;10.80;1.00
5743;DHT22;2896;53.500;10.020;2023-05-15T02:09:06;10.70;1.00
5743;DHT22;2896;53.500;10.020;2023-05-15T02:11:33;10.70;1.00
5743;DHT22;2896;53.500;10.020;2023-05-15T02:14:00;10.70;1.00
5743;DHT22;2896;53.500;10.020;2023-05-15T02:16:27;10.60;1.00
5743;DHT22;2896;53.500;10.020;2023-05-15T02:18:55;10.60;1.00
5743;DHT22;2896;53.500;10.020;2023-05-15T02:21:22;10.50;1.00
5743;DHT22;2896;53.500;10.020;2023-05-15T02:23:48;10.50;1.00
5743;DHT22;2896;53.500;10.020;2023-05-15T02:26:25;10.40;1.00
5743;DHT22;2896;53.500;10.020;2023-05-15T02:29:02;10.40;1.00
5743;DHT22;2896;53.500;10.020;2023-05-15T02:31:36;10.40;1.00
5743;DHT22;2896;53.500;10.020;2023-05-15T02:34:14;10.30;1.00
5743;DHT22;2896;53.500;10.020;2023-05-15T02:36:45;10.30;1.00
5743;DHT22;2896;53.500;10.020;2023-05-15T02:39:14;10.20;1.00
5743;DHT22;2896;53.500;10.020;2023-05-15T02:41:42;10.20;1.00
5743;DHT22;2896;53.500;10.020;2023-05-15T02:44:11;10.10;1.00
5743;DHT22;2896;53.500;10.020;2023-05-15T02:46:40;10.10;1.00
5743;DHT22;2896;53.500;10.020;2023-05-15T02:49:08;10.10;1.00
5743;DHT22;2896;53.500;10.020;2023-05-15T02:51:36;10.00;1.00
5743;DHT22;2896;53.500;10.020;2023-05-15T02:54:03;10.00;1.00
5743;DHT22;2896;53.500;10.020;2023-05-15T02:56:30;9.90;1.00
5743;DHT22;2896;53.500;10.020;2023-05-15T02:58:57;9.90;1.00
5743;DHT22;2896;53.500;10.020;2023-05-15T03:01:24;9.90;1.00
5743;DHT22;2896;53.500;10.020;2023-05-15T03:03:50;9.80;1.00
5743;DHT22;2896;53.500;10.020;2023-05-15T03:06:18;9.80;1.00
5743;DHT22;2896;53.500;10.020;2023-05-15T03:08:45;9.70;1.00
5743;DHT22;2896;53.500;10.020;2023-05-15T03:11:11;9.80;1.00
5743;DHT22;2896;53.500;10.020;2023-05-15T03:13:38;9.70;1.00
5743;DHT22;2896;53.500;10.020;2023-05-15T03:16:05;9.70;1.00
5743;DHT22;2896;53.500;10.020;2023-05-15T03:18:31;9.70;1.00
5743;DHT22;2896;53.500;10.020;2023-05-15T03:20:58;9.60;1.00
5743;DHT22;2896;53.500;10.020;2023-05-15T03:23:26;9.60;1.00
5743;DHT22;2896;53.500;10.020;2023-05-15T03:25:53;9.60;1.00
5743;DHT22;2896;53.500;10.020;2023-05-15T03:28:19;9.60;1.00
5743;DHT22;2896;53.500;10.020;2023-05-15T03:30:46;9.50;1.00
5743;DHT22;2896;53.500;10.020;2023-05-15T03:33:12;9.50;1.00
5743;DHT22;2896;53.500;10.020;2023-05-15T03:35:39;9.50;1.00
5743;DHT22;2896;53.500;10.020;2023-05-15T03:38:06;9.50;1.00
5743;DHT22;2896;53.500;10.020;2023-05-15T03:40:34;9.50;1.00
5743;DHT22;2896;53.500;10.020;2023-05-15T03:43:00;9.50;1.00
5743;DHT22;2896;53.500;10.020;2023-05-15T03:45:27;9.50;1.00
5743;DHT22;2896;53.500;10.020;2023-05-15T03:47:53;9.50;1.00
5743;DHT22;2896;53.500;10.020;2023-05-15T03:50:20;9.50;1.00
5743;DHT22;2896;53.500;10.020;2023-05-15T03:52:46;9.50;1.00
5743;DHT22;2896;53.500;10.020;2023-05-15T03:55:13;9.50;1.00
5743;DHT22;2896;53.500;10.020;2023-05-15T03:57:41;9.50;1.00
5743;DHT22;2896;53.500;10.020;2023-05-15T04:00:09;9.50;1.00
5743;DHT22;2896;53.500;10.020;2023-05-15T04:02:36;9.50;1.00
5743;DHT22;2896;53.500;10.020;2023-05-15T04:05:03;9.50;1.00
5743;DHT22;2896;53.500;10.020;2023-05-15T04:07:32;9.50;1.00
5743;DHT22;2896;53.500;10.020;2023-05-15T04:09:59;9.50;1.00
5743;DHT22;2896;53.500;10.020;2023-05-15T04:12:26;9.60;1.00
5743;DHT22;2896;53.500;10.020;2023-05-15T04:14:55;9.60;1.00
5743;DHT22;2896;53.500;10.020;2023-05-15T04:17:22;9.60;1.00
5743;DHT22;2896;53.500;10.020;2023-05-15T04:19:48;9.70;1.00
5743;DHT22;2896;53.500;10.020;2023-05-15T04:22:15;9.70;1.00
5743;DHT22;2896;53.500;10.020;2023-05-15T04:24:41;9.70;1.00
5743;DHT22;2896;53.500;10.020;2023-05-15T04:27:08;9.80;1.00
5743;DHT22;2896;53.500;10.020;2023-05-15T04:29:35;9.80;1.00
5743;DHT22;2896;53.500;10.020;2023-05-15T04:32:03;9.90;1.00
5743;DHT22;2896;53.500;10.020;2023-05-15T04:34:30;9.90;1.00
5743;DHT22;2896;53.500;10.020;2023-05-15T04:36:57;10.00;1.00
5743;DHT22;2896;53.500;10.020;2023-05-15T04:39:23;10.00;1.00
5743;DHT22;2896;53.500;10.020;2023-05-15T04:41:50;10.10;1.00
5743;DHT22;2896;53.500;10.020;2023-05-15T04:44:16;10.20;8.40
5743;DHT22;2896;53.500;10.020;2023-05-15T04:46:43;10.20;18.30
5743;DHT22;2896;53.500;10.020;2023-05-15T04:49:11;10.20;1.30
5743;DHT22;2896;53.500;10.020;2023-05-15T04:51:38;10.40;22.80
5743;DHT22;2896;53.500;10.020;2023-05-15T04:54:05;10.40;48.40
5743;DHT22;2896;53.500;10.020;2023-05-15T04:56:32;10.50;57.60
5743;DHT22;2896;53.500;10.020;2023-05-15T04:58:59;10.60;69.50
5743;DHT22;2896;53.500;10.020;2023-05-15T05:01:25;10.70;68.80
5743;DHT22;2896;53.500;10.020;2023-05-15T05:03:52;10.90;72.20
5743;DHT22;2896;53.500;10.020;2023-05-15T05:06:20;10.90;47.70
5743;DHT22;2896;53.500;10.020;2023-05-15T05:08:46;11.00;46.30
5743;DHT22;2896;53.500;10.020;2023-05-15T05:11:13;11.10;46.10
5743;DHT22;2896;53.500;10.020;2023-05-15T05:13:39;11.20;53.00
5743;DHT22;2896;53.500;10.020;2023-05-15T05:16:07;11.40;46.10
5743;DHT22;2896;53.500;10.020;2023-05-15T05:18:33;11.40;42.00
5743;DHT22;2896;53.500;10.020;2023-05-15T05:21:00;11.60;50.70
5743;DHT22;2896;53.500;10.020;2023-05-15T05:23:29;11.80;23.40
5743;DHT22;2896;53.500;10.020;2023-05-15T05:25:56;11.90;1.00
5743;DHT22;2896;53.500;10.020;2023-05-15T05:28:23;12.10;1.00
5743;DHT22;2896;53.500;10.020;2023-05-15T05:30:50;12.30;1.00
5743;DHT22;2896;53.500;10.020;2023-05-15T05:33:17;12.50;1.00
5743;DHT22;2896;53.500;10.020;2023-05-15T05:35:44;12.70;1.00
5743;DHT22;2896;53.500;10.020;2023-05-15T05:38:10;12.80;1.00
5743;DHT22;2896;53.500;10.020;2023-05-15T05:40:38;13.00;1.00
5743;DHT22;2896;53.500;10.020;2023-05-15T05:43:05;13.10;1.00
5743;DHT22;2896;53.500;10.020;2023-05-15T05:45:31;13.30;1.00
5743;DHT22;2896;53.500;10.020;2023-05-15T05:47:58;13.40;1.00
5743;DHT22;2896;53.500;10.020;2023-05-15T05:50:25;13.50;1.00
5743;DHT22;2896;53.500;10.020;2023-05-15T05:52:51;13.70;1.00
5743;DHT22;2896;53.500;10.020;2023-05-15T05:55:18;13.90;99.90
5743;DHT22;2896;53.500;10.020;2023-05-15T05:57:46;14.10;99.90
5743;DHT22;2896;53.500;10.020;2023-05-15T06:00:14;14.30;99.90
5743;DHT22;2896;53.500;10.020;2023-05-15T06:02:41;14.60;99.90
5743;DHT22;2896;53.500;10.020;2023-05-15T06:05:08;14.80;99.90
5743;DHT22;2896;53.500;10.020;2023-05-15T06:07:35;15.00;99.90
5743;DHT22;2896;53.500;10.020;2023-05-15T06:10:01;15.20;99.90
5743;DHT22;2896;53.500;10.020;2023-05-15T06:12:28;15.30;99.90
5743;DHT22;2896;53.500;10.020;2023-05-15T06:14:56;14.20;99.90
5743;DHT22;2896;53.500;10.020;2023-05-15T06:17:22;15.50;99.90
5743;DHT22;2896;53.500;10.020;2023-05-15T06:19:50;15.60;99.90
5743;DHT22;2896;53.500;10.020;2023-05-15T06:22:16;15.60;99.90
5743;DHT22;2896;53.500;10.020;2023-05-15T06:24:43;15.70;99.90
5743;DHT22;2896;53.500;10.020;2023-05-15T06:27:10;15.90;99.90
5743;DHT22;2896;53.500;10.020;2023-05-15T06:29:36;16.00;99.90
5743;DHT22;2896;53.500;10.020;2023-05-15T06:32:05;16.00;99.90
5743;DHT22;2896;53.500;10.020;2023-05-15T06:34:32;16.10;99.90
5743;DHT22;2896;53.500;10.020;2023-05-15T06:36:59;16.30;99.90
5743;DHT22;2896;53.500;10.020;2023-05-15T06:39:26;16.40;99.90
5743;DHT22;2896;53.500;10.020;2023-05-15T06:41:53;16.60;99.90
5743;DHT22;2896;53.500;10.020;2023-05-15T06:44:23;16.80;99.90
5743;DHT22;2896;53.500;10.020;2023-05-15T06:46:50;16.90;99.90
5743;DHT22;2896;53.500;10.020;2023-05-15T06:49:18;17.00;99.90
5743;DHT22;2896;53.500;10.020;2023-05-15T06:51:44;17.10;99.90
5743;DHT22;2896;53.500;10.020;2023-05-15T06:54:11;17.20;99.90
5743;DHT22;2896;53.500;10.020;2023-05-15T06:56:37;17.40;99.90
5743;DHT22;2896;53.500;10.020;2023-05-15T06:59:04;17.50;99.90
5743;DHT22;2896;53.500;10.020;2023-05-15T07:01:31;17.60;99.90
5743;DHT22;2896;53.500;10.020;2023-05-15T07:03:58;17.60;99.90
5743;DHT22;2896;53.500;10.020;2023-05-15T07:06:26;17.80;99.90
5743;DHT22;2896;53.500;10.020;2023-05-15T07:08:53;17.80;99.90
5743;DHT22;2896;53.500;10.020;2023-05-15T07:11:20;17.90;99.90
5743;DHT22;2896;53.500;10.020;2023-05-15T07:13:47;18.00;99.90
5743;DHT22;2896;53.500;10.020;2023-05-15T07:16:13;18.30;99.90
5743;DHT22;2896;53.500;10.020;2023-05-15T07:18:40;18.30;99.90
5743;DHT22;2896;53.500;10.020;2023-05-15T07:21:07;18.80;99.90
5743;DHT22;2896;53.500;10.020;2023-05-15T07:23:35;18.60;99.90
5743;DHT22;2896;53.500;10.020;2023-05-15T07:26:01;18.80;99.90
5743;DHT22;2896;53.500;10.020;2023-05-15T07:28:28;18.80;99.90
5743;DHT22;2896;53.500;10.020;2023-05-15T07:30:55;18.70;99.90
5743;DHT22;2896;53.500;10.020;2023-05-15T07:33:21;18.80;99.90
5743;DHT22;2896;53.500;10.020;2023-05-15T07:35:49;19.20;99.90
5743;DHT22;2896;53.500;10.020;2023-05-15T07:38:16;19.10;99.90
5743;DHT22;2896;53.500;10.020;2023-05-15T07:40:44;19.20;99.90
5743;DHT22;2896;53.500;10.020;2023-05-15T07:43:10;19.30;99.90
5743;DHT22;2896;53.500;10.020;2023-05-15T07:45:37;19.50;99.90
5743;DHT22;2896;53.500;10.020;2023-05-15T07:48:14;19.70;99.90
5743;DHT22;2896;53.500;10.020;2023-05-15T07:50:41;19.90;99.90
5743;DHT22;2896;53.500;10.020;2023-05-15T07:53:08;20.00;99.90
5743;DHT22;2896;53.500;10.020;2023-05-15T07:55:34;20.20;99.90
5743;DHT22;2896;53.500;10.020;2023-05-15T07:58:02;20.20;99.90
5743;DHT22;2896;53.500;10.020;2023-05-15T08:00:29;20.10;99.90
5743;DHT22;2896;53.500;10.020;2023-05-15T08:02:56;20.40;99.90
5743;DHT22;2896;53.500;10.020;2023-05-15T08:05:22;20.60;99.90
5743;DHT22;2896;53.500;10.020;2023-05-15T08:07:49;20.80;99.90
5743;DHT22;2896;53.500;10.020;2023-05-15T08:10:16;20.90;99.90
5743;DHT22;2896;53.500;10.020;2023-05-15T08:12:42;20.90;99.90
5743;DHT22;2896;53.500;10.020;2023-05-15T08:15:12;21.20;99.90
5743;DHT22;2896;53.500;10.020;2023-05-15T08:17:39;21.50;99.90
5743;DHT22;2896;53.500;10.020;2023-05-15T08:20:07;21.60;99.90
5743;DHT22;2896;53.500;10.020;2023-05-15T08:22:34;21.70;99.90
5743;DHT22;2896;53.500;10.020;2023-05-15T08:25:01;21.60;99.90
5743;DHT22;2896;53.500;10.020;2023-05-15T08:27:30;21.50;99.90
5743;DHT22;2896;53.500;10.020;2023-05-15T08:29:56;21.60;99.90
5743;DHT22;2896;53.500;10.020;2023-05-15T08:32:24;21.90;99.90
5743;DHT22;2896;53.500;10.020;2023-05-15T08:34:51;22.00;99.90
5743;DHT22;2896;53.500;10.020;2023-05-15T08:37:18;21.90;99.90
5743;DHT22;2896;53.500;10.020;2023-05-15T08:39:45;22.10;99.90
5743;DHT22;2896;53.500;10.020;2023-05-15T08:42:15;22.50;99.90
5743;DHT22;2896;53.500;10.020;2023-05-15T08:44:45;22.40;99.90
5743;DHT22;2896;53.500;10.020;2023-05-15T08:47:12;22.60;99.90
5743;DHT22;2896;53.500;10.020;2023-05-15T08:49:50;22.80;99.90
5743;DHT22;2896;53.500;10.020;2023-05-15T08:52:17;22.70;99.90
5743;DHT22;2896;53.500;10.020;2023-05-15T08:54:44;23.00;99.90
5743;DHT22;2896;53.500;10.020;2023-05-15T08:57:12;22.90;99.90
5743;DHT22;2896;53.500;10.020;2023-05-15T08:59:39;23.10;99.90
5743;DHT22;2896;53.500;10.020;2023-05-15T09:02:06;22.90;99.90
5743;DHT22;2896;53.500;10.020;2023-05-15T09:04:33;22.80;99.90
5743;DHT22;2896;53.500;10.020;2023-05-15T09:07:02;23.10;99.90
5743;DHT22;2896;53.500;10.020;2023-05-15T09:09:31;23.50;99.90
5743;DHT22;2896;53.500;10.020;2023-05-15T09:11:58;24.00;99.90
5743;DHT22;2896;53.500;10.020;2023-05-15T09:14:25;24.20;99.90
5743;DHT22;2896;53.500;10.020;2023-05-15T09:16:52;24.00;99.90
5743;DHT22;2896;53.500;10.020;2023-05-15T09:19:19;24.00;99.90
5743;DHT22;2896;53.500;10.020;2023-05-15T09:21:46;23.50;99.90
5743;DHT22;2896;53.500;10.020;2023-05-15T09:24:19;23.60;99.90
5743;DHT22;2896;53.500;10.020;2023-05-15T09:27:01;23.90;99.90
5743;DHT22;2896;53.500;10.020;2023-05-15T09:29:31;23.80;99.90
5743;DHT22;2896;53.500;10.020;2023-05-15T09:32:01;24.10;99.90
5743;DHT22;2896;53.500;10.020;2023-05-15T09:34:29;24.20;99.90
5743;DHT22;2896;53.500;10.020;2023-05-15T09:36:56;24.40;99.90
5743;DHT22;2896;53.500;10.020;2023-05-15T09:39:24;24.70;99.90
5743;DHT22;2896;53.500;10.020;2023-05-15T09:41:51;25.00;99.90
5743;DHT22;2896;53.500;10.020;2023-05-15T09:44:18;24.80;99.90
5743;DHT22;2896;53.500;10.020;2023-05-15T09:46:45;24.60;99.90
5743;DHT22;2896;53.500;10.020;2023-05-15T09:49:12;24.60;99.90
5743;DHT22;2896;53.500;10.020;2023-05-15T09:51:39;24.90;99.90
5743;DHT22;2896;53.500;10.020;2023-05-15T09:54:06;25.20;99.90
5743;DHT22;2896;53.500;10.020;2023-05-15T09:56:38;25.10;99.90
5743;DHT22;2896;53.500;10.020;2023-05-15T09:59:11;24.90;99.90
5743;DHT22;2896;53.500;10.020;2023-05-15T10:01:41;25.30;99.90
5743;DHT22;2896;53.500;10.020;2023-05-15T10:04:08;25.30;99.90
5743;DHT22;2896;53.500;10.020;2023-05-15T10:06:36;25.10;99.90
5743;DHT22;2896;53.500;10.020;2023-05-15T10:09:03;25.70;99.90
5743;DHT22;2896;53.500;10.020;2023-05-15T10:11:33;25.70;99.90
5743;DHT22;2896;53.500;10.020;2023-05-15T10:14:02;25.50;99.90
5743;DHT22;2896;53.500;10.020;2023-05-15T10:16:32;24.90;99.90
5743;DHT22;2896;53.500;10.020;2023-05-15T10:19:00;25.30;99.90
5743;DHT22;2896;53.500;10.020;2023-05-15T10:21:30;25.70;99.90
5743;DHT22;2896;53.500;10.020;2023-05-15T10:23:58;25.40;99.90
5743;DHT22;2896;53.500;10.020;2023-05-15T10:26:30;25.40;99.90
5743;DHT22;2896;53.500;10.020;2023-05-15T10:28:58;25.50;99.90
5743;DHT22;2896;53.500;10.020;2023-05-15T10:31:28;25.80;99.90
5743;DHT22;2896;53.500;10.020;2023-05-15T10:33:55;25.10;99.90
5743;DHT22;2896;53.500;10.020;2023-05-15T10:36:22;25.60;99.90
5743;DHT22;2896;53.500;10.020;2023-05-15T10:38:50;26.10;99.90
5743;DHT22;2896;53.500;10.020;2023-05-15T10:41:17;26.60;99.90
5743;DHT22;2896;53.500;10.020;2023-05-15T10:43:46;26.10;99.90
5743;DHT22;2896;53.500;10.020;2023-05-15T10:46:14;26.80;99.90
5743;DHT22;2896;53.500;10.020;2023-05-15T10:48:42;26.90;99.90
5743;DHT22;2896;53.500;10.020;2023-05-15T10:51:16;26.80;99.90
5743;DHT22;2896;53.500;10.020;2023-05-15T10:53:43;27.00;99.90
5743;DHT22;2896;53.500;10.020;2023-05-15T10:56:14;27.50;99.90
5743;DHT22;2896;53.500;10.020;2023-05-15T10:58:45;27.50;99.90
5743;DHT22;2896;53.500;10.020;2023-05-15T11:01:27;27.90;99.90
5743;DHT22;2896;53.500;10.020;2023-05-15T11:04:08;27.90;99.90
5743;DHT22;2896;53.500;10.020;2023-05-15T11:06:36;27.10;99.90
5743;DHT22;2896;53.500;10.020;2023-05-15T11:09:37;26.50;99.90
5743;DHT22;2896;53.500;10.020;2023-05-15T11:12:06;25.10;99.90
5743;DHT22;2896;53.500;10.020;2023-05-15T11:14:35;24.70;99.90
5743;DHT22;2896;53.500;10.020;2023-05-15T11:17:03;24.70;99.90
5743;DHT22;2896;53.500;10.020;2023-05-15T11:19:36;24.70;99.90
5743;DHT22;2896;53.500;10.020;2023-05-15T11:22:16;24.70;99.90
5743;DHT22;2896;53.500;10.020;2023-05-15T11:24:53;24.40;99.90
5743;DHT22;2896;53.500;10.020;2023-05-15T11:27:22;24.30;99.90
5743;DHT22;2896;53.500;10.020;2023-05-15T11:30:09;24.30;99.90
5743;DHT22;2896;53.500;10.020;2023-05-15T11:32:53;24.20;99.90
5743;DHT22;2896;53.500;10.020;2023-05-15T11:35:26;24.00;99.90
5743;DHT22;2896;53.500;10.020;2023-05-15T11:37:54;23.80;99.90
5743;DHT22;2896;53.500;10.020;2023-05-15T11:40:23;23.90;99.90
5743;DHT22;2896;53.500;10.020;2023-05-15T11:43:02;24.30;99.90
5743;DHT22;2896;53.500;10.020;2023-05-15T11:45:29;24.50;99.90
5743;DHT22;2896;53.500;10.020;2023-05-15T11:47:58;24.40;99.90
5743;DHT22;2896;53.500;10.020;2023-05-15T11:50:27;24.80;99.90
5743;DHT22;2896;53.500;10.020;2023-05-15T11:52:54;24.80;99.90
5743;DHT22;2896;53.500;10.020;2023-05-15T11:55:21;24.70;99.90
5743;DHT22;2896;53.500;10.020;2023-05-15T11:57:48;24.40;99.90
5743;DHT22;2896;53.500;10.020;2023-05-15T12:00:15;24.40;99.90
5743;DHT22;2896;53.500;10.020;2023-05-15T12:02:42;24.00;99.90
5743;DHT22;2896;53.500;10.020;2023-05-15T12:05:09;24.00;99.90
5743;DHT22;2896;53.500;10.020;2023-05-15T12:07:38;23.80;99.90
5743;DHT22;2896;53.500;10.020;2023-05-15T12:10:08;23.80;99.90
5743;DHT22;2896;53.500;10.020;2023-05-15T12:12:38;23.90;99.90
5743;DHT22;2896;53.500;10.020;2023-05-15T12:15:07;23.80;99.90
5743;DHT22;2896;53.500;10.020;2023-05-15T12:17:36;23.90;99.90
5743;DHT22;2896;53.500;10.020;2023-05-15T12:20:03;24.20;99.90
5743;DHT22;2896;53.500;10.020;2023-05-15T12:22:35;24.10;99.90
5743;DHT22;2896;53.500;10.020;2023-05-15T12:25:04;24.70;99.90
5743;DHT22;2896;53.500;10.020;2023-05-15T12:27:31;24.10;99.90
5743;DHT22;2896;53.500;10.020;2023-05-15T12:29:58;23.80;99.90
5743;DHT22;2896;53.500;10.020;2023-05-15T12:32:25;24.10;99.90
5743;DHT22;2896;53.500;10.020;2023-05-15T12:34:52;23.70;99.90
5743;DHT22;2896;53.500;10.020;2023-05-15T12:37:19;23.30;99.90
5743;DHT22;2896;53.500;10.020;2023-05-15T12:39:50;23.10;99.90
5743;DHT22;2896;53.500;10.020;2023-05-15T12:42:18;23.30;99.90
5743;DHT22;2896;53.500;10.020;2023-05-15T12:44:48;23.50;99.90
5743;DHT22;2896;53.500;10.020;2023-05-15T12:47:21;22.20;99.90
5743;DHT22;2896;53.500;10.020;2023-05-15T12:49:48;23.10;99.90
5743;DHT22;2896;53.500;10.020;2023-05-15T12:52:14;22.90;99.90
5743;DHT22;2896;53.500;10.020;2023-05-15T12:54:43;22.60;99.90
5743;DHT22;2896;53.500;10.020;2023-05-15T12:57:10;22.40;99.90
5743;DHT22;2896;53.500;10.020;2023-05-15T12:59:39;22.20;99.90
5743;DHT22;2896;53.500;10.020;2023-05-15T13:02:08;22.10;99.90
5743;DHT22;2896;53.500;10.020;2023-05-15T13:04:35;21.90;99.90
5743;DHT22;2896;53.500;10.020;2023-05-15T13:07:02;22.00;99.90
5743;DHT22;2896;53.500;10.020;2023-05-15T13:09:28;21.50;99.90
5743;DHT22;2896;53.500;10.020;2023-05-15T13:11:55;21.40;99.90
5743;DHT22;2896;53.500;10.020;2023-05-15T13:14:23;21.00;99.90
5743;DHT22;2896;53.500;10.020;2023-05-15T13:16:58;21.00;99.90
5743;DHT22;2896;53.500;10.020;2023-05-15T13:19:25;21.10;99.90
5743;DHT22;2896;53.500;10.020;2023-05-15T13:21:51;21.10;99.90
5743;DHT22;2896;53.500;10.020;2023-05-15T13:24:18;21.00;99.90
5743;DHT22;2896;53.500;10.020;2023-05-15T13:26:44;21.10;99.90
5743;DHT22;2896;53.500;10.020;2023-05-15T13:29:11;20.90;99.90
5743;DHT22;2896;53.500;10.020;2023-05-15T13:31:38;21.00;99.90
5743;DHT22;2896;53.500;10.020;2023-05-15T13:34:06;21.10;99.90
5743;DHT22;2896;53.500;10.020;2023-05-15T13:36:32;21.50;99.90
5743;DHT22;2896;53.500;10.020;2023-05-15T13:38:59;21.70;99.90
5743;DHT22;2896;53.500;10.020;2023-05-15T13:41:25;23.40;99.90
5743;DHT22;2896;53.500;10.020;2023-05-15T13:43:52;22.00;99.90
5743;DHT22;2896;53.500;10.020;2023-05-15T13:46:18;22.40;99.90
5743;DHT22;2896;53.500;10.020;2023-05-15T13:48:45;22.50;99.90
5743;DHT22;2896;53.500;10.020;2023-05-15T13:51:13;22.80;99.90
5743;DHT22;2896;53.500;10.020;2023-05-15T13:53:40;23.20;99.90
5743;DHT22;2896;53.500;10.020;2023-05-15T13:56:06;23.20;99.90
5743;DHT22;2896;53.500;10.020;2023-05-15T13:58:33;23.00;99.90
5743;DHT22;2896;53.500;10.020;2023-05-15T14:01:03;22.80;99.90
5743;DHT22;2896;53.500;10.020;2023-05-15T14:03:30;22.60;99.90
5743;DHT22;2896;53.500;10.020;2023-05-15T14:05:57;22.60;99.90
5743;DHT22;2896;53.500;10.020;2023-05-15T14:08:24;22.50;99.90
5743;DHT22;2896;53.500;10.020;2023-05-15T14:10:51;22.40;99.90
5743;DHT22;2896;53.500;10.020;2023-05-15T14:13:18;22.40;99.90
5743;DHT22;2896;53.500;10.020;2023-05-15T14:15:44;22.20;99.90
5743;DHT22;2896;53.500;10.020;2023-05-15T14:18:11;22.30;99.90
5743;DHT22;2896;53.500;10.020;2023-05-15T14:20:37;22.30;99.90
5743;DHT22;2896;53.500;10.020;2023-05-15T14:23:04;22.00;99.90
5743;DHT22;2896;53.500;10.020;2023-05-15T14:25:32;22.10;99.90
5743;DHT22;2896;53.500;10.020;2023-05-15T14:27:58;22.30;99.90
5743;DHT22;2896;53.500;10.020;2023-05-15T14:30:25;22.40;99.90
5743;DHT22;2896;53.500;10.020;2023-05-15T14:32:51;22.10;99.90
5743;DHT22;2896;53.500;10.020;2023-05-15T14:35:18;22.30;99.90
5743;DHT22;2896;53.500;10.020;2023-05-15T14:37:45;22.40;99.90
5743;DHT22;2896;53.500;10.020;2023-05-15T14:40:12;22.70;99.90
5743;DHT22;2896;53.500;10.020;2023-05-15T14:42:40;22.50;99.90
5743;DHT22;2896;53.500;10.020;2023-05-15T14:45:07;22.80;99.90
5743;DHT22;2896;53.500;10.020;2023-05-15T14:47:34;22.90;99.90
5743;DHT22;2896;53.500;10.020;2023-05-15T14:50:01;23.10;99.90
5743;DHT22;2896;53.500;10.020;2023-05-15T14:52:27;23.40;99.90
5743;DHT22;2896;53.500;10.020;2023-05-15T14:54:54;23.60;99.90
5743;DHT22;2896;53.500;10.020;2023-05-15T14:57:20;23.60;99.90
5743;DHT22;2896;53.500;10.020;2023-05-15T14:59:48;23.70;99.90
5743;DHT22;2896;53.500;10.020;2023-05-15T15:02:15;23.40;99.90
5743;DHT22;2896;53.500;10.020;2023-05-15T15:04:41;23.60;99.90
5743;DHT22;2896;53.500;10.020;2023-05-15T15:07:10;23.00;99.90
5743;DHT22;2896;53.500;10.020;2023-05-15T15:09:36;22.80;99.90
5743;DHT22;2896;53.500;10.020;2023-05-15T15:12:04;22.30;99.90
5743;DHT22;2896;53.500;10.020;2023-05-15T15:14:30;22.40;99.90
5743;DHT22;2896;53.500;10.020;2023-05-15T15:16:58;22.20;99.90
5743;DHT22;2896;53.500;10.020;2023-05-15T15:19:25;22.40;99.90
5743;DHT22;2896;53.500;10.020;2023-05-15T15:21:51;22.10;99.90
5743;DHT22;2896;53.500;10.020;2023-05-15T15:24:18;22.10;99.90
5743;DHT22;2896;53.500;10.020;2023-05-15T15:26:45;21.80;99.90
5743;DHT22;2896;53.500;10.020;2023-05-15T15:29:11;22.20;99.90
5743;DHT22;2896;53.500;10.020;2023-05-15T15:31:38;22.80;99.90
5743;DHT22;2896;53.500;10.020;2023-05-15T15:34:06;23.10;99.90
5743;DHT22;2896;53.500;10.020;2023-05-15T15:36:34;22.90;99.90
5743;DHT22;2896;53.500;10.020;2023-05-15T15:39:03;23.00;99.90
5743;DHT22;2896;53.500;10.020;2023-05-15T15:41:30;22.40;99.90
5743;DHT22;2896;53.500;10.020;2023-05-15T15:43:56;22.30;99.90
5743;DHT22;2896;53.500;10.020;2023-05-15T15:46:23;22.40;99.90
5743;DHT22;2896;53.500;10.020;2023-05-15T15:48:50;22.10;99.90
5743;DHT22;2896;53.500;10.020;2023-05-15T15:51:18;21.40;99.90
5743;DHT22;2896;53.500;10.020;2023-05-15T15:53:44;21.60;99.90
5743;DHT22;2896;53.500;10.020;2023-05-15T15:56:11;21.60;99.90
5743;DHT22;2896;53.500;10.020;2023-05-15T15:58:37;21.30;99.90